Time;durP1;ratioP1;P1;durP2;ratioP2;P2;SDS_P1;SDS_P2;PMS_P1;PMS_P2;Temp;Humidity;BMP_temperature;BMP_pressure;BME280_temperature;BME280_humidity;BME280_pressure;Samples;Min_cycle;Max_cycle;Signal;HPM_P1;HPM_P2
2021/04/30 03:30:34;;;;;;;8.03;7.23;;;;;;;12.77;52.37;98315.31;8336931;23;20228;-79
2021/04/30 03:33:56;;;;;;;9.23;7.93;;;;;;;12.86;51.45;98311.19;6919468;28;20208;-79
2021/04/30 03:37:17;;;;;;;8.70;7.80;;;;;;;12.73;54.03;98318.69;6919804;28;20209;-78
2021/04/30 03:40:38;;;;;;;8.90;8.00;;;;;;;12.73;52.14;98308.69;6919907;28;20260;-79
2021/04/30 03:43:59;;;;;;;8.90;6.97;;;;;;;13.14;51.88;98321.41;6919866;28;20211;-80
2021/04/30 03:47:21;;;;;;;8.30;7.50;;;;;;;13.18;50.42;98312.59;6919137;28;20214;-79
2021/04/30 03:50:42;;;;;;;8.93;7.73;;;;;;;12.92;50.31;98306.75;6919898;28;20228;-79
2021/04/30 03:54:03;;;;;;;10.53;9.43;;;;;;;12.97;51.22;98302.31;6920760;28;20220;-79
2021/04/30 03:57:25;;;;;;;13.07;10.47;;;;;;;12.96;52.02;98314.19;6920628;28;20217;-79
2021/04/30 04:00:46;;;;;;;13.93;9.27;;;;;;;13.21;51.73;98330.25;6921518;28;20240;-79
2021/04/30 04:04:08;;;;;;;10.80;7.93;;;;;;;13.37;51.63;98319.56;6921866;28;20205;-79
2021/04/30 04:07:29;;;;;;;10.67;8.40;;;;;;;13.28;51.52;98271.41;6925961;28;20209;-78
2021/04/30 04:10:50;;;;;;;10.13;9.10;;;;;;;12.77;53.25;98311.75;6921491;28;20231;-79
2021/04/30 04:14:11;;;;;;;10.13;9.10;;;;;;;13.18;53.03;98293.66;6921834;28;20234;-79
2021/04/30 04:17:32;;;;;;;11.33;10.13;;;;;;;13.00;52.62;98296.44;6914340;28;20217;-79
2021/04/30 04:20:54;;;;;;;11.03;9.90;;;;;;;13.01;50.78;98314.34;6921292;28;20237;-77
2021/04/30 04:24:16;;;;;;;12.07;9.77;;;;;;;12.74;50.55;98304.13;6910559;28;20661;-76
2021/04/30 04:27:37;;;;;;;11.53;9.50;;;;;;;13.33;50.26;98309.44;6918752;28;20213;-77
2021/04/30 04:30:58;;;;;;;11.90;9.93;;;;;;;13.60;50.40;98324.16;6918889;28;20271;-77
2021/04/30 04:34:19;;;;;;;11.37;10.23;;;;;;;13.29;50.73;98300.13;6919866;28;20208;-76
2021/04/30 04:37:41;;;;;;;11.50;10.30;;;;;;;12.90;51.42;98319.66;6918661;28;20237;-76
2021/04/30 04:41:03;;;;;;;12.97;10.87;;;;;;;13.30;50.69;98305.31;6919687;28;20299;-83
2021/04/30 04:44:24;;;;;;;12.57;10.83;;;;;;;13.19;49.56;98284.47;6920444;28;20696;-79
2021/04/30 04:47:45;;;;;;;10.97;9.87;;;;;;;13.40;49.46;98321.78;6918754;28;20209;-78
2021/04/30 04:51:06;;;;;;;13.90;11.57;;;;;;;13.22;50.25;98337.31;6919831;28;20272;-78
2021/04/30 04:54:28;;;;;;;11.27;9.83;;;;;;;13.28;49.44;98339.09;6919298;28;20643;-78
2021/04/30 04:57:49;;;;;;;10.87;9.77;;;;;;;12.95;49.46;98346.88;6919064;28;20209;-78
2021/04/30 05:01:10;;;;;;;12.73;10.47;;;;;;;13.15;46.42;98334.69;6919076;28;20230;-78
2021/04/30 05:04:31;;;;;;;13.17;11.63;;;;;;;13.00;47.75;98339.75;6919379;28;20214;-78
2021/04/30 05:07:52;;;;;;;13.90;11.63;;;;;;;12.94;47.31;98340.66;6918854;28;20242;-78
2021/04/30 05:11:14;;;;;;;13.47;11.03;;;;;;;12.80;47.76;98357.31;6918909;28;20282;-79
2021/04/30 05:14:35;;;;;;;12.57;10.70;;;;;;;13.40;46.82;98350.75;6918981;28;20202;-79
2021/04/30 05:17:56;;;;;;;12.17;10.97;;;;;;;13.39;46.22;98357.25;6918144;28;20241;-79
2021/04/30 05:21:18;;;;;;;12.20;10.90;;;;;;;13.15;47.59;98352.84;6919085;28;20229;-78
2021/04/30 05:24:41;;;;;;;11.57;10.37;;;;;;;13.09;46.57;98349.16;6919083;28;20209;-79
2021/04/30 05:28:05;;;;;;;11.63;10.43;;;;;;;13.22;47.02;98340.03;6918923;28;20250;-79
2021/04/30 05:31:26;;;;;;;12.83;11.00;;;;;;;13.03;47.96;98350.09;6922480;28;20241;-79
2021/04/30 05:34:47;;;;;;;10.90;9.80;;;;;;;13.22;47.32;98327.28;6915400;28;20237;-79
2021/04/30 05:38:08;;;;;;;11.73;10.53;;;;;;;13.57;46.57;98354.44;6925860;28;20201;-78
2021/04/30 05:41:29;;;;;;;13.17;11.10;;;;;;;13.48;47.25;98348.53;6924320;28;20224;-78
2021/04/30 05:44:53;;;;;;;11.80;10.27;;;;;;;13.80;46.16;98351.72;6924065;28;20236;-78
2021/04/30 05:48:14;;;;;;;16.50;10.90;;;;;;;13.67;45.99;98327.56;6924369;28;20208;-79
2021/04/30 05:51:35;;;;;;;13.17;10.97;;;;;;;13.64;46.37;98341.59;6925269;28;20224;-77
2021/04/30 05:54:56;;;;;;;11.73;10.53;;;;;;;13.73;45.70;98338.28;6924409;28;20214;-79
2021/04/30 05:58:17;;;;;;;13.83;10.23;;;;;;;13.77;46.56;98339.47;6923796;28;20211;-78
2021/04/30 06:01:39;;;;;;;13.60;11.60;;;;;;;14.32;44.06;98310.03;6923545;28;20225;-78
2021/04/30 06:05:01;;;;;;;12.67;10.53;;;;;;;14.35;43.54;98309.56;6922561;28;20201;-78
2021/04/30 06:08:23;;;;;;;11.50;10.30;;;;;;;14.22;43.33;98305.22;6922686;28;20310;-78
2021/04/30 06:11:44;;;;;;;17.53;10.87;;;;;;;13.97;44.94;98322.81;6922902;28;22065;-78
2021/04/30 06:15:06;;;;;;;12.00;10.43;;;;;;;14.36;44.29;98293.06;6921464;28;20245;-78
2021/04/30 06:18:28;;;;;;;12.20;9.90;;;;;;;14.59;43.40;98295.69;6922750;28;20238;-79
2021/04/30 06:21:49;;;;;;;11.77;10.57;;;;;;;14.80;42.91;98284.13;6922874;28;20282;-79
2021/04/30 06:25:11;;;;;;;14.13;11.07;;;;;;;14.32;43.56;98281.03;6922282;28;20214;-78
2021/04/30 06:28:32;;;;;;;10.47;8.73;;;;;;;14.04;43.10;98280.97;6923032;28;20207;-78
2021/04/30 06:31:54;;;;;;;10.77;9.30;;;;;;;13.71;43.09;98288.94;6921930;28;20234;-78
2021/04/30 06:35:16;;;;;;;10.77;9.67;;;;;;;13.72;43.54;98285.16;6922407;28;20581;-79
2021/04/30 06:38:39;;;;;;;9.77;8.77;;;;;;;13.77;44.35;98279.88;6922339;28;20238;-78
2021/04/30 06:42:02;;;;;;;11.03;9.57;;;;;;;14.43;43.43;98284.75;6921242;28;20267;-79
2021/04/30 06:45:24;;;;;;;9.93;9.00;;;;;;;14.56;42.75;98281.75;6921874;28;20220;-78
2021/04/30 06:48:45;;;;;;;9.77;8.63;;;;;;;14.26;42.55;98306.41;6922176;28;20201;-79
2021/04/30 06:52:07;;;;;;;10.53;8.93;;;;;;;13.95;42.59;98304.09;6916826;28;20223;-78
2021/04/30 06:55:28;;;;;;;9.77;8.77;;;;;;;14.52;42.21;98289.56;6918623;28;20200;-79
2021/04/30 06:58:49;;;;;;;12.77;10.43;;;;;;;14.55;42.47;98280.94;6922162;28;20246;-78
2021/04/30 07:02:11;;;;;;;11.40;9.50;;;;;;;14.54;41.66;98284.72;6921645;28;20223;-78
2021/04/30 07:05:32;;;;;;;10.60;8.80;;;;;;;15.31;39.87;98283.06;6921653;28;20222;-79
2021/04/30 07:08:54;;;;;;;10.20;9.07;;;;;;;14.91;40.62;98285.94;6926057;28;20218;-79
2021/04/30 07:12:15;;;;;;;10.07;9.07;;;;;;;15.04;40.49;98285.63;6925737;28;20234;-79
2021/04/30 07:15:36;;;;;;;10.83;9.70;;;;;;;14.75;41.51;98302.22;6928752;28;20204;-81
2021/04/30 07:18:58;;;;;;;9.93;8.93;;;;;;;14.80;41.18;98302.31;6922750;28;20233;-80
2021/04/30 07:22:19;;;;;;;12.27;9.03;;;;;;;14.67;41.25;98300.72;6921351;28;20228;-80
2021/04/30 07:25:41;;;;;;;12.00;8.77;;;;;;;14.40;42.40;98287.97;6920627;28;20206;-80
2021/04/30 07:29:02;;;;;;;10.33;9.33;;;;;;;14.49;41.29;98283.78;6921080;28;20206;-78
2021/04/30 07:32:23;;;;;;;12.27;9.20;;;;;;;14.19;42.36;98270.47;6920462;28;20644;-78
2021/04/30 07:35:44;;;;;;;9.90;8.90;;;;;;;14.03;43.13;98270.34;6919414;28;20215;-80
2021/04/30 07:39:06;;;;;;;9.60;8.60;;;;;;;14.11;42.08;98251.03;6915811;28;20223;-79
2021/04/30 07:42:28;;;;;;;9.93;8.93;;;;;;;14.36;41.62;98222.56;6929694;28;20583;-79
2021/04/30 07:45:49;;;;;;;10.10;9.03;;;;;;;14.71;42.35;98257.63;6920095;28;20204;-79
2021/04/30 07:49:10;;;;;;;9.83;8.83;;;;;;;14.86;41.20;98250.56;6921058;28;20204;-79
2021/04/30 07:52:31;;;;;;;10.17;9.17;;;;;;;14.37;41.87;98251.31;6905064;28;20267;-79
2021/04/30 07:55:53;;;;;;;8.80;7.97;;;;;;;14.36;41.41;98225.25;6894642;28;20216;-79
2021/04/30 07:59:15;;;;;;;8.60;7.70;;;;;;;14.62;42.08;98259.09;6893269;28;20228;-79
2021/04/30 08:02:36;;;;;;;10.07;8.43;;;;;;;14.96;40.95;98261.59;6906653;28;20219;-79
2021/04/30 08:05:57;;;;;;;9.83;8.23;;;;;;;14.83;41.20;98261.09;6919642;28;20252;-79
2021/04/30 08:09:19;;;;;;;13.40;9.07;;;;;;;15.16;40.73;98259.22;6920070;28;20572;-79
2021/04/30 08:24:42;;;;;;;10.03;9.03;;;;;;;14.46;42.13;98255.25;6869347;28;20270;-79
2021/04/30 08:28:03;;;;;;;11.30;8.87;;;;;;;14.32;42.41;98242.25;6886217;28;20288;-78
2021/04/30 08:31:26;;;;;;;14.00;9.10;;;;;;;14.31;42.00;98189.91;6883864;28;20205;-79
2021/04/30 08:43:25;;;;;;;10.23;9.17;;;;;;;13.85;43.62;98267.81;6860732;28;20653;-78
2021/04/30 08:46:46;;;;;;;9.83;8.83;;;;;;;14.10;43.69;98279.19;6885592;28;20205;-76
2021/04/30 08:50:08;;;;;;;15.67;8.97;;;;;;;13.98;43.98;98267.56;6883842;28;20197;-77
2021/04/30 08:53:29;;;;;;;12.60;8.40;;;;;;;14.92;42.77;98262.34;6864636;28;20256;-77
2021/04/30 08:56:53;;;;;;;9.57;8.57;;;;;;;14.33;43.10;98252.84;6888154;28;20565;-73
2021/04/30 09:00:16;;;;;;;8.90;8.00;;;;;;;14.24;43.26;98201.97;6884482;28;20240;-79
2021/04/30 09:03:38;;;;;;;8.93;8.13;;;;;;;14.94;42.17;98193.19;6862063;28;20211;-73
2021/04/30 09:07:12;;;;;;;9.33;8.30;;;;;;;15.64;42.09;98247.75;6872184;28;20215;-79
2021/04/30 09:10:39;;;;;;;8.97;8.07;;;;;;;14.92;41.58;98122.00;6893759;28;20553;-78
2021/04/30 09:14:24;;;;;;;8.57;7.77;;;;;;;15.27;40.87;98135.28;6878674;28;20205;-79
2021/04/30 09:17:46;;;;;;;8.70;7.70;;;;;;;14.91;41.58;98192.81;6867184;28;20217;-78
2021/04/30 09:21:13;;;;;;;9.07;7.50;;;;;;;14.67;42.33;98143.34;6866514;28;20217;-80
2021/04/30 09:24:35;;;;;;;8.60;7.50;;;;;;;15.25;41.34;98200.72;6866538;28;20275;-79
2021/04/30 09:27:58;;;;;;;9.10;8.07;;;;;;;15.52;40.35;98184.56;6867398;28;20235;-79
2021/04/30 09:31:31;;;;;;;11.57;9.67;;;;;;;15.76;40.24;98251.97;6868158;28;20248;-79
2021/04/30 09:35:01;;;;;;;15.03;9.50;;;;;;;15.27;41.38;98268.38;6871786;28;20224;-79
2021/04/30 09:38:24;;;;;;;10.00;9.00;;;;;;;15.26;41.01;98237.66;6865945;28;20200;-79
2021/04/30 09:42:04;;;;;;;9.10;8.17;;;;;;;15.14;41.62;98241.53;6866140;28;20217;-79
2021/04/30 09:45:48;;;;;;;11.13;9.23;;;;;;;15.18;42.76;98280.69;6866323;28;20591;-79
2021/04/30 09:49:12;;;;;;;10.40;9.37;;;;;;;14.65;42.60;98180.75;6866072;28;20206;-79
2021/04/30 09:52:54;;;;;;;12.97;9.50;;;;;;;15.11;42.20;98214.88;6870851;28;20646;-76
2021/04/30 10:00:32;;;;;;;9.87;8.97;;;;;;;14.95;42.37;98204.84;6889033;28;20218;-78
2021/04/30 10:04:01;;;;;;;11.70;10.50;;;;;;;14.91;42.93;98222.69;6888786;28;20677;-78
2021/04/30 10:07:30;;;;;;;10.13;9.03;;;;;;;14.95;42.09;98142.41;6886634;28;20192;-82
2021/04/30 10:10:52;;;;;;;12.27;9.70;;;;;;;15.71;41.03;98234.81;6869974;28;20218;-81
2021/04/30 10:14:13;;;;;;;11.73;9.93;;;;;;;14.38;43.24;98204.13;6879453;28;20212;-82
2021/04/30 10:17:35;;;;;;;9.67;8.67;;;;;;;14.76;42.56;98158.13;6862192;28;20560;-82
2021/04/30 10:20:56;;;;;;;11.97;9.80;;;;;;;15.12;42.47;98165.75;6863989;28;20224;-81
2021/04/30 10:24:19;;;;;;;9.97;8.80;;;;;;;14.84;41.92;98167.75;6884582;28;20250;-81
2021/04/30 10:27:50;;;;;;;10.73;9.70;;;;;;;15.35;41.24;98172.91;6870991;28;20292;-81
2021/04/30 10:31:13;;;;;;;11.43;10.23;;;;;;;14.84;42.69;98198.44;6867377;28;20650;-81
2021/04/30 10:34:40;;;;;;;10.27;9.10;;;;;;;14.31;44.53;98259.56;6864694;28;20214;-81
2021/04/30 10:38:07;;;;;;;11.37;10.20;;;;;;;13.52;44.62;98164.72;6864177;28;20207;-81
2021/04/30 10:41:29;;;;;;;11.90;10.70;;;;;;;14.07;44.43;98217.31;6864514;28;20210;-81
2021/04/30 10:44:58;;;;;;;11.97;10.67;;;;;;;13.85;44.10;98148.59;6863483;28;20213;-80
2021/04/30 10:48:19;;;;;;;12.33;11.17;;;;;;;13.98;44.23;98210.66;6875875;28;20214;-81
2021/04/30 10:51:40;;;;;;;14.07;12.03;;;;;;;14.54;45.03;98218.78;6890452;28;20211;-79
2021/04/30 10:55:03;;;;;;;15.07;11.57;;;;;;;13.98;44.20;98194.38;6881142;28;20226;-77
2021/04/30 10:58:35;;;;;;;16.03;12.73;;;;;;;14.97;45.91;98316.69;6863353;28;20660;-81
2021/04/30 11:02:02;;;;;;;15.03;13.13;;;;;;;14.24;47.18;98210.09;6888407;28;20209;-81
2021/04/30 11:05:25;;;;;;;15.87;13.50;;;;;;;14.50;48.71;98301.72;6885299;28;20208;-81
2021/04/30 11:08:49;;;;;;;17.47;15.53;;;;;;;14.20;50.21;98265.88;6878374;28;20214;-81
2021/04/30 11:12:25;;;;;;;17.33;15.43;;;;;;;14.16;49.75;98280.94;6887427;28;20305;-79
2021/04/30 11:15:57;;;;;;;19.93;15.53;;;;;;;13.76;50.72;98196.09;6869752;28;20264;-80
2021/04/30 11:19:19;;;;;;;22.77;16.40;;;;;;;13.42;51.64;98238.44;6869742;28;20227;-80
2021/04/30 11:22:40;;;;;;;19.87;16.40;;;;;;;13.85;52.23;98316.59;6863561;28;20228;-81
2021/04/30 11:26:07;;;;;;;20.27;16.97;;;;;;;12.61;52.98;98236.69;6863012;28;20224;-81
2021/04/30 11:29:30;;;;;;;20.80;17.30;;;;;;;13.47;52.92;98216.06;6865781;28;20220;-81
2021/04/30 11:32:56;;;;;;;24.37;17.63;;;;;;;13.06;53.44;98208.09;6883915;28;20640;-80
2021/04/30 11:36:19;;;;;;;25.47;20.00;;;;;;;13.55;54.28;98273.41;6882735;28;20211;-80
2021/04/30 11:39:41;;;;;;;22.60;18.47;;;;;;;12.85;54.13;98200.50;6868278;28;20568;-81
2021/04/30 11:43:06;;;;;;;21.43;17.43;;;;;;;12.91;53.86;98278.84;6861156;28;20199;-80
2021/04/30 11:46:27;;;;;;;23.13;16.90;;;;;;;12.15;54.68;98199.53;6866893;28;20254;-81
2021/04/30 11:49:54;;;;;;;19.40;16.40;;;;;;;12.47;53.88;98241.50;6861167;28;20213;-81
2021/04/30 11:53:16;;;;;;;18.33;14.90;;;;;;;12.27;53.13;98189.56;6861065;28;20229;-81
2021/04/30 11:56:37;;;;;;;22.63;16.50;;;;;;;12.21;55.21;98230.22;6877911;28;20215;-74
2021/04/30 11:59:59;;;;;;;24.70;18.90;;;;;;;12.84;55.75;98298.94;6888061;28;20226;-77
2021/04/30 12:03:22;;;;;;;22.87;16.67;;;;;;;12.91;54.41;98302.38;6881425;28;21060;-81
2021/04/30 12:06:43;;;;;;;20.33;16.47;;;;;;;12.83;54.40;98336.03;6887158;28;20206;-80
2021/04/30 12:10:18;;;;;;;22.03;18.93;;;;;;;12.42;54.98;98257.56;6860408;28;20209;-80
2021/04/30 12:13:39;;;;;;;24.73;19.33;;;;;;;13.05;55.21;98344.47;6867710;28;20207;-79
2021/04/30 12:17:00;;;;;;;21.93;19.57;;;;;;;12.46;55.29;98277.66;6894513;28;20201;-80
2021/04/30 12:20:24;;;;;;;24.53;18.57;;;;;;;12.45;55.59;98302.25;6875577;28;20226;-78
2021/04/30 12:28:17;;;;;;;23.97;17.50;;;;;;;12.53;56.92;98359.53;6888847;28;20258;-79
2021/04/30 12:31:39;;;;;;;37.50;25.10;;;;;;;12.43;56.34;98328.66;6906991;28;20331;-78
2021/04/30 12:35:04;;;;;;;20.37;17.03;;;;;;;12.40;56.20;98367.00;6881407;28;20310;-79
2021/04/30 12:38:29;;;;;;;23.10;18.27;;;;;;;12.48;57.59;98374.78;6882318;28;20218;-79
2021/04/30 12:41:51;;;;;;;22.20;17.17;;;;;;;11.86;57.59;98354.31;6870441;28;20254;-79
2021/04/30 12:45:15;;;;;;;19.50;16.57;;;;;;;11.68;56.54;98345.38;6862034;28;20236;-79
2021/04/30 12:48:37;;;;;;;17.80;15.93;;;;;;;12.01;58.55;98386.34;6874037;28;20223;-79
2021/04/30 12:51:59;;;;;;;19.37;16.20;;;;;;;12.08;57.38;98292.53;6886609;28;20205;-78
2021/04/30 12:55:28;;;;;;;17.03;14.40;;;;;;;12.35;55.16;98346.06;6898280;28;20205;-79
2021/04/30 12:59:04;;;;;;;18.10;14.80;;;;;;;11.80;56.03;98278.75;6871887;28;20742;-80
2021/04/30 13:02:29;;;;;;;23.43;18.27;;;;;;;12.10;57.98;98303.97;6875992;28;20259;-78
2021/04/30 13:05:51;;;;;;;20.23;15.17;;;;;;;12.26;56.54;98255.50;6866489;28;20214;-79
2021/04/30 13:09:13;;;;;;;17.47;15.67;;;;;;;12.35;57.09;98269.53;6881864;28;20287;-79
2021/04/30 13:12:35;;;;;;;21.60;15.63;;;;;;;12.05;57.78;98293.81;6867514;28;20206;-79
2021/04/30 13:16:01;;;;;;;19.53;15.83;;;;;;;12.21;57.83;98273.47;6874235;28;20218;-79
2021/04/30 13:19:25;;;;;;;21.80;16.60;;;;;;;12.03;57.64;98319.44;6886006;28;20243;-79
2021/04/30 13:22:46;;;;;;;21.40;16.57;;;;;;;11.75;59.19;98276.72;6884657;28;20210;-80
2021/04/30 13:26:21;;;;;;;19.20;16.97;;;;;;;11.84;57.69;98267.28;6863084;28;20238;-79
2021/04/30 13:29:44;;;;;;;21.10;16.93;;;;;;;11.50;58.61;98280.50;6882485;28;20206;-79
2021/04/30 13:33:16;;;;;;;20.87;17.47;;;;;;;12.26;58.99;98355.50;6868651;28;20822;-79
2021/04/30 13:36:54;;;;;;;23.17;18.20;;;;;;;11.90;60.34;98304.19;6879145;28;20233;-79
2021/04/30 13:40:18;;;;;;;23.17;17.40;;;;;;;12.31;59.74;98335.91;6861435;28;20718;-79
2021/04/30 13:43:40;;;;;;;21.20;17.63;;;;;;;12.15;59.50;98256.28;6863801;28;20240;-79
2021/04/30 13:47:01;;;;;;;24.33;16.50;;;;;;;12.82;58.51;98325.41;6878022;28;20295;-79
2021/04/30 13:50:23;;;;;;;22.03;17.80;;;;;;;12.85;58.90;98368.22;6868204;28;20576;-79
2021/04/30 13:53:46;;;;;;;21.93;18.90;;;;;;;12.70;59.98;98363.22;6881122;28;20210;-72
2021/04/30 13:57:08;;;;;;;21.23;17.40;;;;;;;12.38;59.53;98332.06;6883844;28;20205;-79
2021/04/30 14:00:29;;;;;;;20.40;16.83;;;;;;;12.13;59.74;98361.06;6869917;28;20221;-79
2021/04/30 14:03:51;;;;;;;22.50;18.00;;;;;;;12.52;60.40;98351.66;6873091;28;20206;-79
2021/04/30 14:07:12;;;;;;;21.77;17.87;;;;;;;12.59;60.31;98325.34;6864911;28;20564;-79
2021/04/30 14:10:34;;;;;;;23.87;20.10;;;;;;;12.36;60.51;98331.47;6864876;28;20656;-79
2021/04/30 14:13:56;;;;;;;22.07;19.67;;;;;;;12.51;60.90;98350.81;6867958;28;22045;-80
2021/04/30 14:17:17;;;;;;;24.57;20.23;;;;;;;12.56;61.07;98318.50;6891260;28;20218;-79
2021/04/30 14:20:39;;;;;;;20.50;17.03;;;;;;;12.76;58.94;98347.97;6875120;28;20230;-75
2021/04/30 14:24:03;;;;;;;23.13;17.90;;;;;;;12.62;59.14;98352.75;6891008;28;20224;-78
2021/04/30 14:27:27;;;;;;;21.27;16.33;;;;;;;12.68;59.01;98338.31;6890513;28;20303;-79
2021/04/30 14:30:49;;;;;;;22.43;18.73;;;;;;;12.83;59.36;98343.28;6874378;28;20604;-79
2021/04/30 14:34:10;;;;;;;20.90;18.60;;;;;;;12.94;59.17;98345.22;6873740;28;20235;-79
2021/04/30 14:37:32;;;;;;;23.37;19.13;;;;;;;12.92;60.14;98333.81;6891548;28;20210;-79
2021/04/30 14:40:53;;;;;;;19.83;17.13;;;;;;;13.05;58.76;98333.63;6866173;28;20234;-79
2021/04/30 14:44:15;;;;;;;22.27;19.57;;;;;;;12.91;59.51;98341.09;6864112;28;20208;-79
2021/04/30 14:47:36;;;;;;;23.00;19.33;;;;;;;13.26;59.45;98347.44;6862891;28;20234;-78
2021/04/30 14:50:58;;;;;;;20.77;17.00;;;;;;;13.06;58.80;98306.34;6881323;28;20618;-78
2021/04/30 14:54:19;;;;;;;20.30;17.27;;;;;;;12.93;59.60;98320.03;6867028;28;20208;-78
2021/04/30 14:57:40;;;;;;;21.67;18.87;;;;;;;13.09;59.57;98302.34;6887730;28;20336;-78
2021/04/30 15:01:03;;;;;;;17.93;16.07;;;;;;;13.47;58.20;98297.31;6863746;28;20238;-77
2021/04/30 15:04:24;;;;;;;17.40;15.50;;;;;;;13.10;58.43;98304.00;6872015;28;20276;-77
2021/04/30 15:07:49;;;;;;;15.37;13.83;;;;;;;12.95;58.12;98290.03;6878476;28;20305;-77
2021/04/30 15:11:10;;;;;;;14.40;12.40;;;;;;;13.63;55.94;98285.78;6876827;28;20203;-77
2021/04/30 15:14:33;;;;;;;16.63;14.70;;;;;;;13.58;55.94;98297.28;6897894;28;20202;-77
2021/04/30 15:18:03;;;;;;;16.10;14.03;;;;;;;12.94;56.58;98264.03;6901251;28;20216;-78
2021/04/30 15:21:27;;;;;;;16.03;13.80;;;;;;;13.07;57.74;98310.69;6862234;28;20690;-77
2021/04/30 15:24:50;;;;;;;17.07;15.27;;;;;;;13.06;56.93;98235.97;6881413;28;20218;-77
2021/04/30 15:28:11;;;;;;;21.93;18.93;;;;;;;12.84;58.14;98259.22;6889713;28;20215;-77
2021/04/30 15:31:33;;;;;;;14.63;13.13;;;;;;;12.37;57.46;98278.22;6868193;28;20205;-76
2021/04/30 15:34:57;;;;;;;18.50;14.53;;;;;;;12.39;57.12;98233.69;6875214;28;20203;-76
2021/04/30 15:38:19;;;;;;;18.47;16.50;;;;;;;13.14;56.24;98324.09;6865846;28;20200;-76
2021/04/30 15:41:43;;;;;;;16.80;15.10;;;;;;;13.41;57.23;98342.41;6888731;28;20618;-77
2021/04/30 15:45:08;;;;;;;15.27;13.67;;;;;;;12.56;56.80;98280.66;6889596;28;20211;-76
2021/04/30 15:48:29;;;;;;;17.63;15.73;;;;;;;12.73;57.84;98276.22;6875921;28;20229;-76
2021/04/30 15:51:51;;;;;;;17.77;15.00;;;;;;;12.25;57.98;98188.16;6861395;28;20216;-76
2021/04/30 15:55:14;;;;;;;19.97;14.67;;;;;;;12.75;57.89;98293.03;6863098;28;20220;-78
2021/04/30 15:58:36;;;;;;;16.00;13.73;;;;;;;12.47;57.24;98275.81;6863160;28;20652;-78
2021/04/30 16:02:00;;;;;;;15.43;13.80;;;;;;;12.87;57.10;98312.84;6872401;28;20267;-78
2021/04/30 16:05:21;;;;;;;19.70;14.63;;;;;;;12.25;58.09;98220.59;6862915;28;20218;-78
2021/04/30 16:08:51;;;;;;;19.20;15.27;;;;;;;13.00;57.29;98246.91;6860824;28;20215;-78
2021/04/30 16:12:12;;;;;;;17.50;14.60;;;;;;;12.57;57.34;98286.91;6890168;28;20201;-77
2021/04/30 16:15:34;;;;;;;15.40;13.70;;;;;;;12.49;56.83;98252.88;6888731;28;20197;-78
2021/04/30 16:18:55;;;;;;;20.33;16.03;;;;;;;12.30;57.64;98218.88;6862391;28;20218;-78
2021/04/30 16:22:19;;;;;;;16.43;14.73;;;;;;;11.52;59.59;98190.13;6861616;28;20233;-77
2021/04/30 16:25:41;;;;;;;18.60;15.23;;;;;;;12.88;58.15;98292.03;6862415;28;20705;-78
2021/04/30 16:29:04;;;;;;;19.80;15.90;;;;;;;13.14;57.48;98321.41;6861276;28;20211;-77
2021/04/30 16:32:26;;;;;;;20.57;16.43;;;;;;;12.71;57.75;98272.94;6868736;28;20872;-77
2021/04/30 16:35:48;;;;;;;19.70;17.27;;;;;;;12.42;58.44;98221.59;6889160;28;20219;-76
2021/04/30 16:39:13;;;;;;;19.70;17.40;;;;;;;12.77;57.43;98247.69;6872821;28;20213;-78
2021/04/30 16:42:35;;;;;;;18.17;16.27;;;;;;;12.75;57.40;98235.44;6888654;28;20197;-77
2021/04/30 16:46:11;;;;;;;17.27;15.43;;;;;;;12.83;57.44;98251.31;6889299;28;20212;-78
2021/04/30 16:49:32;;;;;;;16.97;13.77;;;;;;;13.23;56.52;98301.88;6861636;28;20770;-78
2021/04/30 16:52:55;;;;;;;16.40;14.70;;;;;;;13.57;55.18;98278.59;6862127;28;20207;-78
2021/04/30 16:56:16;;;;;;;18.70;16.40;;;;;;;13.11;55.72;98273.16;6883000;28;20215;-78
2021/04/30 16:59:39;;;;;;;20.27;17.30;;;;;;;12.41;57.81;98211.84;6887811;28;20234;-79
2021/04/30 17:03:03;;;;;;;21.53;18.43;;;;;;;13.15;58.40;98347.44;6888808;28;20214;-78
2021/04/30 17:06:24;;;;;;;20.83;17.63;;;;;;;12.96;57.73;98303.38;6887553;28;20592;-78
2021/04/30 17:09:46;;;;;;;19.80;17.70;;;;;;;12.74;58.22;98299.53;6886283;28;20209;-79
2021/04/30 17:13:10;;;;;;;25.33;19.73;;;;;;;12.27;60.22;98315.81;6886750;28;20683;-78
2021/04/30 17:16:32;;;;;;;22.20;19.13;;;;;;;12.77;60.14;98371.28;6886633;28;20210;-78
2021/04/30 17:19:55;;;;;;;24.67;18.50;;;;;;;12.18;59.64;98323.41;6887096;28;20225;-78
2021/04/30 17:23:17;;;;;;;20.80;18.63;;;;;;;12.50;60.19;98376.22;6871730;28;20207;-78
2021/04/30 17:26:40;;;;;;;24.93;18.87;;;;;;;12.36;60.77;98380.13;6860709;28;20221;-77
2021/04/30 17:30:02;;;;;;;25.20;20.57;;;;;;;12.62;60.31;98373.56;6873531;28;20775;-77
2021/04/30 17:33:25;;;;;;;22.70;18.30;;;;;;;12.12;59.30;98289.16;6886501;28;20209;-77
2021/04/30 17:36:46;;;;;;;24.57;18.77;;;;;;;12.82;58.98;98345.19;6896392;28;20716;-78
2021/04/30 17:40:11;;;;;;;28.30;21.47;;;;;;;12.53;59.98;98331.66;6917780;28;20228;-78
2021/04/30 17:43:33;;;;;;;26.13;21.33;;;;;;;12.31;60.11;98298.06;6915149;28;20268;-79
2021/04/30 17:46:55;;;;;;;26.13;21.10;;;;;;;12.54;60.07;98315.22;6890916;28;20237;-79
2021/04/30 17:50:17;;;;;;;25.00;20.93;;;;;;;12.84;59.23;98351.19;6880207;28;20207;-78
2021/04/30 17:53:38;;;;;;;28.33;22.63;;;;;;;12.67;59.92;98350.19;6866197;28;20212;-78
2021/04/30 17:57:00;;;;;;;48.17;33.43;;;;;;;12.44;60.23;98293.31;6890755;28;20262;-78
2021/04/30 18:00:21;;;;;;;34.30;26.10;;;;;;;12.43;60.72;98348.44;6891927;28;20683;-78
2021/04/30 18:03:42;;;;;;;47.87;36.27;;;;;;;12.07;61.09;98299.84;6892893;28;20289;-78
2021/04/30 18:07:10;;;;;;;32.63;26.13;;;;;;;12.18;61.51;98376.59;6892828;28;20206;-78
2021/04/30 18:10:31;;;;;;;34.63;26.77;;;;;;;12.54;61.77;98419.84;6892031;28;20546;-79
2021/04/30 18:13:54;;;;;;;44.77;34.23;;;;;;;12.06;62.30;98362.19;6876208;28;20886;-79
2021/04/30 18:17:18;;;;;;;66.10;49.03;;;;;;;12.61;62.89;98432.22;6883167;28;20285;-78
2021/04/30 18:20:40;;;;;;;33.87;28.63;;;;;;;12.17;61.06;98381.16;6889330;28;20235;-78
2021/04/30 18:24:02;;;;;;;56.90;43.47;;;;;;;12.63;60.52;98440.94;6890418;28;20212;-78
2021/04/30 18:27:25;;;;;;;31.17;22.90;;;;;;;12.50;59.71;98429.44;6891038;28;20221;-78
2021/04/30 18:30:46;;;;;;;45.10;36.10;;;;;;;12.38;59.83;98391.53;6889617;28;20206;-78
2021/04/30 18:34:08;;;;;;;33.03;26.67;;;;;;;12.25;60.00;98358.44;6891642;28;20283;-79
2021/04/30 18:37:32;;;;;;;29.30;22.40;;;;;;;12.54;60.04;98399.03;6889872;28;20240;-78
2021/04/30 18:40:57;;;;;;;30.20;22.03;;;;;;;12.78;59.61;98440.53;6889227;28;20235;-79
2021/04/30 18:44:19;;;;;;;31.87;23.50;;;;;;;12.33;60.26;98401.41;6869201;28;20203;-79
2021/04/30 18:47:44;;;;;;;28.97;22.03;;;;;;;11.50;60.85;98320.97;6864062;28;20746;-78
2021/04/30 18:51:06;;;;;;;25.10;20.43;;;;;;;11.54;61.09;98382.44;6863956;28;20617;-78
2021/04/30 18:54:28;;;;;;;24.53;21.77;;;;;;;11.92;61.22;98372.31;6865278;28;20204;-78
2021/04/30 18:57:50;;;;;;;27.77;21.37;;;;;;;11.65;60.59;98340.41;6864797;28;20267;-78
2021/04/30 19:01:12;;;;;;;32.50;26.47;;;;;;;11.19;60.49;98299.50;6863197;28;20259;-78
2021/04/30 19:04:33;;;;;;;29.63;23.73;;;;;;;12.28;59.48;98358.00;6864273;28;20657;-79
2021/04/30 19:07:57;;;;;;;27.43;23.53;;;;;;;12.45;59.66;98388.75;6868469;28;20283;-78
2021/04/30 19:11:18;;;;;;;34.40;26.77;;;;;;;12.74;59.51;98436.66;6883531;28;20209;-76
2021/04/30 19:14:40;;;;;;;34.57;27.63;;;;;;;12.38;59.97;98433.97;6864025;28;20281;-77
2021/04/30 19:18:04;;;;;;;74.97;51.87;;;;;;;12.35;60.42;98400.13;6863629;28;20214;-77
2021/04/30 19:21:26;;;;;;;30.50;25.83;;;;;;;12.45;59.78;98454.47;6863475;28;20252;-77
2021/04/30 19:24:48;;;;;;;46.23;39.40;;;;;;;12.18;59.86;98396.38;6863755;28;20213;-77
2021/04/30 19:28:12;;;;;;;57.33;51.13;;;;;;;12.75;60.24;98462.66;6862933;28;20213;-77
2021/04/30 19:31:35;;;;;;;39.10;31.73;;;;;;;12.37;60.45;98402.56;6863069;28;20205;-77
2021/04/30 19:34:56;;;;;;;40.83;32.93;;;;;;;12.30;60.45;98396.41;6863727;28;20691;-77
2021/04/30 19:38:18;;;;;;;39.07;30.20;;;;;;;12.13;60.70;98420.53;6863920;28;20206;-77